createdAt,value
2023-04-18T00:00:12.234Z,22.80
2023-04-18T00:05:18.214Z,23.00
2023-04-18T00:10:21.193Z,22.80
2023-04-18T00:15:25.807Z,22.70
2023-04-18T00:20:28.623Z,22.80
2023-04-18T00:25:31.439Z,22.80
2023-04-18T00:30:35.653Z,22.80
2023-04-18T00:35:39.044Z,22.70
2023-04-18T00:40:42.092Z,22.80
2023-04-18T00:45:46.462Z,22.80
2023-04-18T00:50:49.315Z,22.80
2023-04-18T00:55:52.501Z,22.70
2023-04-18T01:00:56.726Z,22.70
2023-04-18T01:06:01.031Z,22.70
2023-04-18T01:11:03.898Z,22.60
2023-04-18T01:16:08.668Z,22.70
2023-04-18T01:21:11.570Z,22.60
2023-04-18T01:26:15.786Z,22.70
2023-04-18T01:31:18.686Z,22.70
2023-04-18T01:36:21.762Z,22.70
2023-04-18T01:41:26.037Z,22.70
2023-04-18T01:46:29.121Z,22.60
2023-04-18T01:51:32.210Z,22.60
2023-04-18T01:56:36.448Z,22.60
2023-04-18T02:01:39.307Z,22.60
2023-04-18T02:06:42.111Z,22.60
2023-04-18T02:11:46.569Z,22.60
2023-04-18T02:16:49.534Z,22.60
2023-04-18T02:21:52.647Z,22.60
2023-04-18T02:26:56.791Z,22.60
2023-04-18T02:32:00.109Z,22.60
2023-04-18T02:37:03.085Z,22.60
2023-04-18T02:42:07.284Z,22.60
2023-04-18T02:47:10.132Z,22.60
2023-04-18T02:52:13.016Z,22.60
2023-04-18T02:57:17.321Z,22.50
2023-04-18T03:02:20.897Z,22.50
2023-04-18T03:07:23.869Z,22.50
2023-04-18T03:12:28.443Z,22.50
2023-04-18T03:17:31.340Z,22.50
2023-04-18T03:22:34.189Z,22.50
2023-04-18T03:27:38.419Z,22.50
2023-04-18T03:32:42.258Z,22.50
2023-04-18T03:37:45.292Z,22.50
2023-04-18T03:42:49.455Z,22.50
2023-04-18T03:47:52.421Z,22.50
2023-04-18T03:52:55.280Z,22.50
2023-04-18T03:57:59.476Z,22.50
2023-04-18T04:03:02.684Z,22.50
2023-04-18T04:08:05.916Z,22.50
2023-04-18T04:13:11.319Z,22.50
2023-04-18T04:18:14.412Z,22.40
2023-04-18T04:23:17.478Z,22.40
2023-04-18T04:28:22.731Z,22.40
2023-04-18T04:33:29.003Z,22.40
2023-04-18T04:38:31.940Z,22.40
2023-04-18T04:43:38.228Z,22.50
2023-04-18T04:48:42.490Z,22.50
2023-04-18T04:53:45.538Z,22.60
2023-04-18T04:58:50.879Z,22.50
2023-04-18T05:03:55.146Z,22.60
2023-04-18T05:08:59.564Z,22.50
2023-04-18T05:14:03.751Z,22.50
2023-04-18T05:19:06.753Z,22.60
2023-04-18T05:24:10.656Z,22.60
2023-04-18T05:29:14.790Z,22.60
2023-04-18T05:34:17.636Z,22.50
2023-04-18T05:39:20.450Z,22.50
2023-04-18T05:44:25.293Z,22.60
2023-04-18T05:49:28.450Z,22.50
2023-04-18T05:54:31.323Z,22.70
2023-04-18T05:59:35.504Z,22.60
2023-04-18T06:04:38.510Z,22.60
2023-04-18T06:09:41.662Z,22.60
2023-04-18T06:14:45.911Z,22.60
2023-04-18T06:19:48.757Z,22.70
2023-04-18T06:24:51.899Z,22.60
2023-04-18T06:29:56.047Z,22.60
2023-04-18T06:34:58.834Z,22.70
2023-04-18T06:40:02.163Z,22.70
2023-04-18T06:45:08.064Z,22.80
2023-04-18T06:50:11.457Z,22.80
2023-04-18T06:55:15.089Z,22.80
2023-04-18T07:00:19.846Z,22.80
2023-04-18T07:05:22.843Z,22.80
2023-04-18T07:10:26.041Z,22.80
2023-04-18T07:15:30.285Z,22.90
2023-04-18T07:20:33.098Z,22.90
2023-04-18T07:25:36.614Z,22.80
2023-04-18T07:30:40.899Z,22.90
2023-04-18T07:35:45.978Z,23.20
2023-04-18T07:40:58.167Z,23.10
2023-04-18T07:46:02.578Z,23.30
2023-04-18T07:51:05.679Z,23.30
2023-04-18T07:56:08.661Z,23.40
2023-04-18T08:01:15.206Z,23.50
2023-04-18T08:06:18.821Z,23.50
2023-04-18T08:11:21.641Z,23.60
2023-04-18T08:16:28.378Z,23.70
2023-04-18T08:21:33.029Z,23.70
2023-04-18T08:26:35.973Z,23.70
2023-04-18T08:31:41.188Z,23.80
2023-04-18T08:36:44.779Z,23.80
2023-04-18T08:41:54.934Z,23.90
2023-04-18T08:47:01.559Z,24.00
2023-04-18T08:52:09.998Z,23.90
2023-04-18T08:57:16.484Z,24.00
2023-04-18T09:02:23.234Z,24.00
2023-04-18T09:07:29.448Z,24.00
2023-04-18T09:12:32.570Z,24.00
2023-04-18T09:17:38.987Z,24.00
2023-04-18T09:22:50.601Z,24.00
2023-04-18T09:27:53.572Z,24.00
2023-04-18T09:33:00.317Z,24.00
2023-04-18T09:38:03.240Z,24.00
2023-04-18T09:43:19.205Z,24.00
2023-04-18T09:48:23.458Z,23.90
2023-04-18T09:53:26.401Z,24.00
2023-04-18T09:58:31.197Z,24.00
2023-04-18T10:03:46.135Z,24.00
2023-04-18T10:08:49.397Z,24.10
2023-04-18T10:13:56.276Z,24.00
2023-04-18T10:19:23.021Z,24.00
2023-04-18T10:24:53.014Z,23.80
2023-04-18T10:29:56.111Z,24.00
2023-04-18T10:35:00.917Z,24.00
2023-04-18T10:40:06.539Z,24.00
2023-04-18T10:45:19.181Z,24.10
2023-04-18T10:50:23.468Z,24.10
2023-04-18T10:55:29.900Z,24.10
2023-04-18T11:00:33.043Z,24.10
2023-04-18T11:05:37.907Z,24.10
2023-04-18T11:10:41.749Z,24.20
2023-04-18T11:15:44.598Z,24.20
2023-04-18T11:20:51.391Z,24.10
2023-04-18T11:25:56.648Z,24.20
2023-04-18T11:31:00.481Z,24.20
2023-04-18T11:36:06.623Z,24.20
2023-04-18T11:41:14.810Z,24.20
2023-04-18T11:46:17.981Z,24.30
2023-04-18T11:51:38.953Z,24.30
2023-04-18T11:56:48.106Z,24.30
2023-04-18T12:02:08.883Z,24.20
2023-04-18T12:07:31.097Z,24.30
2023-04-18T12:12:34.391Z,24.30
2023-04-18T12:17:38.817Z,24.30
2023-04-18T12:22:46.251Z,24.30
2023-04-18T12:27:54.060Z,24.40
2023-04-18T12:32:58.849Z,24.40
2023-04-18T12:38:03.718Z,24.40
2023-04-18T12:43:06.559Z,24.40
2023-04-18T12:48:09.477Z,24.40
2023-04-18T12:53:14.021Z,24.50
2023-04-18T12:58:18.839Z,24.60
2023-04-18T13:03:22.225Z,24.60
2023-04-18T13:08:26.818Z,24.60
2023-04-18T13:13:30.967Z,24.60
2023-04-18T13:18:33.903Z,24.60
2023-04-18T13:23:38.770Z,24.70
2023-04-18T13:28:41.642Z,24.70
2023-04-18T13:33:44.499Z,24.80
2023-04-18T13:38:48.746Z,24.80
2023-04-18T13:43:51.550Z,24.80
2023-04-18T13:48:54.392Z,24.90
2023-04-18T13:54:00.188Z,24.80
2023-04-18T13:59:03.000Z,24.90
2023-04-18T14:04:06.328Z,24.80
2023-04-18T14:09:12.095Z,24.90
2023-04-18T14:14:15.767Z,25.10
2023-04-18T14:19:20.408Z,25.20
2023-04-18T14:24:24.712Z,25.20
2023-04-18T14:29:28.490Z,25.30
2023-04-18T14:34:33.925Z,25.40
2023-04-18T14:39:39.076Z,25.40
2023-04-18T14:44:42.353Z,25.50
2023-04-18T14:49:45.203Z,25.70
2023-04-18T14:54:49.390Z,25.80
2023-04-18T14:59:58.036Z,25.90
2023-04-18T15:05:00.903Z,26.00
2023-04-18T15:10:04.926Z,26.40
2023-04-18T15:15:10.083Z,26.80
2023-04-18T15:20:13.054Z,27.40
2023-04-18T15:25:17.118Z,28.10
2023-04-18T15:30:21.523Z,29.20
2023-04-18T15:35:24.630Z,30.20
2023-04-18T15:40:27.458Z,30.80
2023-04-18T15:45:31.734Z,30.70
2023-04-18T15:50:34.636Z,31.30
2023-04-18T15:55:37.500Z,31.60
2023-04-18T16:00:41.659Z,32.00
2023-04-18T16:05:44.494Z,32.00
2023-04-18T16:10:47.322Z,32.00
2023-04-18T16:15:51.509Z,31.80
2023-04-18T16:20:54.363Z,30.80
2023-04-18T16:25:57.378Z,28.80
2023-04-18T16:31:01.570Z,27.40
2023-04-18T16:36:05.145Z,27.30
2023-04-18T16:41:07.969Z,27.60
2023-04-18T16:46:13.723Z,27.20
2023-04-18T16:51:16.584Z,26.80
2023-04-18T16:56:19.505Z,26.70
2023-04-18T17:01:23.703Z,26.60
2023-04-18T17:06:27.320Z,26.40
2023-04-18T17:11:32.118Z,26.50
2023-04-18T17:16:38.720Z,26.40
2023-04-18T17:21:41.638Z,26.30
2023-04-18T17:26:44.413Z,26.10
2023-04-18T17:31:48.681Z,26.00
2023-04-18T17:36:51.545Z,25.90
2023-04-18T17:41:54.389Z,25.80
2023-04-18T17:46:58.537Z,25.70
2023-04-18T17:52:02.310Z,25.60
2023-04-18T17:57:05.173Z,25.50
2023-04-18T18:02:11.670Z,25.40
2023-04-18T18:07:14.579Z,25.30
2023-04-18T18:12:17.357Z,25.20
2023-04-18T18:17:22.080Z,25.10
2023-04-18T18:22:26.071Z,25.10
2023-04-18T18:27:29.026Z,25.00
2023-04-18T18:32:33.185Z,25.00
2023-04-18T18:37:36.077Z,24.90
2023-04-18T18:42:39.069Z,24.90
2023-04-18T18:47:43.287Z,24.70
2023-04-18T18:52:46.823Z,24.80
2023-04-18T18:57:49.627Z,24.80
2023-04-18T19:02:53.882Z,24.70
2023-04-18T19:07:57.218Z,24.70
2023-04-18T19:13:01.138Z,24.60
2023-04-18T19:18:05.668Z,24.60
2023-04-18T19:23:08.532Z,24.60
2023-04-18T19:28:12.796Z,24.60
2023-04-18T19:33:17.290Z,24.50
2023-04-18T19:38:20.307Z,24.50
2023-04-18T19:43:23.115Z,24.50
2023-04-18T19:48:27.307Z,24.40
2023-04-18T19:53:30.093Z,24.50
2023-04-18T19:58:36.875Z,24.30
2023-04-18T20:03:41.765Z,24.30
2023-04-18T20:08:45.907Z,24.40
2023-04-18T20:13:48.966Z,24.30
2023-04-18T20:18:54.963Z,24.30
2023-04-18T20:23:59.293Z,24.30
2023-04-18T20:29:03.570Z,24.30
2023-04-18T20:34:07.775Z,24.10
2023-04-18T20:39:10.629Z,24.20
2023-04-18T20:44:13.731Z,24.20
2023-04-18T20:49:17.921Z,24.20
2023-04-18T20:54:20.762Z,24.20
2023-04-18T20:59:24.022Z,24.20
2023-04-18T21:04:28.522Z,24.20
2023-04-18T21:09:36.363Z,24.10
2023-04-18T21:14:39.696Z,24.20
2023-04-18T21:19:45.846Z,24.00
2023-04-18T21:24:48.679Z,24.10
2023-04-18T21:29:51.505Z,24.00
2023-04-18T21:34:57.678Z,24.00
2023-04-18T21:40:01.230Z,24.00
2023-04-18T21:45:04.597Z,24.00
2023-04-18T21:50:11.781Z,24.10
2023-04-18T21:55:16.562Z,23.90
2023-04-18T22:00:20.336Z,24.00
2023-04-18T22:05:26.295Z,23.90
2023-04-18T22:10:29.223Z,24.00
2023-04-18T22:15:32.063Z,23.90
2023-04-18T22:20:37.302Z,23.90
2023-04-18T22:25:40.618Z,24.00
2023-04-18T22:30:43.429Z,23.90
2023-04-18T22:35:48.802Z,23.90
2023-04-18T22:40:52.979Z,23.90
2023-04-18T22:45:55.833Z,23.90
2023-04-18T22:51:01.671Z,23.90
2023-04-18T22:56:05.178Z,23.90
2023-04-18T23:01:08.053Z,23.80
2023-04-18T23:06:12.265Z,23.90
2023-04-18T23:11:15.748Z,23.90
2023-04-18T23:16:18.642Z,23.80
2023-04-18T23:21:23.162Z,23.80
2023-04-18T23:26:26.200Z,23.80
2023-04-18T23:31:29.159Z,23.90
2023-04-18T23:36:33.464Z,23.70
2023-04-18T23:41:36.257Z,23.80
2023-04-18T23:46:40.590Z,23.70
2023-04-18T23:51:44.750Z,23.80
2023-04-18T23:56:47.569Z,23.80
